createdAt,value
2019-05-02T00:01:54.099Z,79.5
2019-05-02T00:06:54.330Z,79.6
2019-05-02T00:11:58.691Z,79.4
2019-05-02T00:16:54.304Z,79.4
2019-05-02T00:21:54.645Z,79.3
2019-05-02T00:26:55.974Z,79.3
2019-05-02T00:31:54.372Z,79.3
2019-05-02T00:36:54.317Z,79
2019-05-02T00:41:54.927Z,78.9
2019-05-02T00:46:54.908Z,79
2019-05-02T00:51:56.505Z,79
2019-05-02T00:56:54.897Z,79
2019-05-02T01:01:54.913Z,79
2019-05-02T01:06:54.913Z,78.8
2019-05-02T01:11:54.914Z,79
2019-05-02T01:16:56.237Z,79.1
2019-05-02T01:21:54.923Z,79.2
2019-05-02T01:26:54.962Z,79.3
2019-05-02T01:31:55.869Z,79.3
2019-05-02T01:36:55.170Z,79.3
2019-05-02T01:41:55.260Z,79.4
2019-05-02T01:46:58.695Z,79.4
2019-05-02T01:51:55.178Z,79.5
2019-05-02T01:56:55.159Z,79.4
2019-05-02T02:01:57.864Z,79.5
2019-05-02T02:06:55.136Z,79.6
2019-05-02T02:12:11.450Z,79.9
2019-05-02T02:17:20.889Z,79.6
2019-05-02T02:22:26.277Z,79.5
2019-05-02T02:27:26.261Z,79.6
2019-05-02T02:32:31.217Z,79.8
2019-05-02T02:37:52.863Z,79.7
2019-05-02T02:42:55.336Z,80.1
2019-05-02T02:48:02.513Z,80
2019-05-02T02:53:02.243Z,79.9
2019-05-02T02:58:04.644Z,80
2019-05-02T03:03:06.861Z,79.9
2019-05-02T03:08:07.217Z,80.1
2019-05-02T03:13:07.956Z,80.4
2019-05-02T03:18:07.927Z,80.5
2019-05-02T03:23:07.955Z,80.6
2019-05-02T03:28:17.233Z,80.9
2019-05-02T03:33:11.120Z,81.1
2019-05-02T04:09:46.826Z,82.8
2019-05-02T04:14:48.285Z,83
2019-05-02T04:19:48.232Z,82.7
2019-05-02T04:24:54.287Z,82.8
2019-05-02T04:29:48.474Z,83.5
2019-05-02T04:34:55.048Z,83.8
2019-05-02T04:39:49.180Z,84.6
2019-05-02T04:45:11.564Z,85.6
2019-05-02T04:49:51.905Z,85.9
2019-05-02T04:54:48.928Z,86.4
2019-05-02T04:59:50.430Z,86.9
2019-05-02T05:04:49.766Z,87.3
2019-05-02T05:09:56.763Z,87.8
2019-05-02T05:14:49.238Z,88
2019-05-02T05:19:49.780Z,88.3
2019-05-02T05:24:50.064Z,88.6
2019-05-02T05:29:53.437Z,89.1
2019-05-02T05:34:52.507Z,89.3
2019-05-02T05:39:53.173Z,89.4
2019-05-02T05:44:50.184Z,89.7
2019-05-02T05:49:52.133Z,89.7
2019-05-02T05:54:51.582Z,89.7
2019-05-02T05:59:51.408Z,89.9
2019-05-02T06:04:55.149Z,90.3
2019-05-02T06:09:51.670Z,89.8
2019-05-02T06:14:56.119Z,89.6
2019-05-02T06:19:53.454Z,89.6
2019-05-02T06:24:52.155Z,89.3
2019-05-02T06:29:56.034Z,88.8
2019-05-02T06:34:51.702Z,88.4
2019-05-02T06:39:52.184Z,88
2019-05-02T06:44:54.802Z,87.8
2019-05-02T06:49:56.013Z,87.2
2019-05-02T06:54:53.983Z,86.6
2019-05-02T06:59:54.563Z,85.7
2019-05-02T07:04:54.664Z,84.8
2019-05-02T07:09:52.170Z,83.9
2019-05-02T07:14:55.974Z,83.4
2019-05-02T07:19:53.502Z,82.1
2019-05-02T07:24:53.493Z,80.9
2019-05-02T07:29:57.616Z,79.9
2019-05-02T07:34:54.201Z,79.3
2019-05-02T07:39:53.762Z,77.9
2019-05-02T07:44:53.985Z,77.2
2019-05-02T07:49:54.036Z,76.9
2019-05-02T07:54:56.054Z,76.6
2019-05-02T07:59:54.803Z,76.3
2019-05-02T08:04:54.065Z,75.2
2019-05-02T08:09:54.006Z,75.3
2019-05-02T08:14:54.022Z,75
2019-05-02T08:19:55.152Z,74.6
2019-05-02T08:24:55.193Z,73.7
2019-05-02T08:29:55.208Z,74.2
2019-05-02T08:34:55.203Z,73.4
2019-05-02T08:39:55.218Z,72.5
2019-05-02T08:44:56.211Z,72.2
2019-05-02T08:49:56.654Z,70.7
2019-05-02T08:54:56.435Z,70.1
2019-05-02T09:00:00.154Z,70.9
2019-05-02T09:04:58.452Z,70.6
2019-05-02T09:10:00.130Z,70.7
2019-05-02T09:14:57.307Z,68.3
2019-05-02T09:20:02.011Z,68
2019-05-02T09:24:57.361Z,68.8
2019-05-02T09:29:57.288Z,67
2019-05-02T09:35:01.925Z,66.2
2019-05-02T09:39:58.129Z,65.5
2019-05-02T09:44:58.173Z,64.9
2019-05-02T09:49:58.151Z,65.6
2019-05-02T09:54:58.172Z,64.2
2019-05-02T09:59:58.155Z,64.5
2019-05-02T10:04:58.143Z,63.3
2019-05-02T10:10:03.012Z,62.8
2019-05-02T10:14:58.190Z,62.9
2019-05-02T10:19:58.187Z,63.2
2019-05-02T10:24:58.134Z,61.5
2019-05-02T10:30:07.836Z,62.5
2019-05-02T10:34:58.714Z,60.2
2019-05-02T10:39:58.735Z,61.3
2019-05-02T10:44:58.668Z,59.3
2019-05-02T10:49:58.662Z,57.5
2019-05-02T10:54:58.690Z,58.2
2019-05-02T10:59:58.628Z,57.9
2019-05-02T11:04:58.751Z,55.3
2019-05-02T11:10:02.930Z,56.9
2019-05-02T11:14:58.690Z,54.4
2019-05-02T11:19:58.650Z,55.5
2019-05-02T11:24:58.680Z,53.8
2019-05-02T11:30:12.111Z,53
2019-05-02T11:35:11.985Z,49.7
2019-05-02T11:40:12.768Z,50.3
2019-05-02T11:45:12.065Z,51.4
2019-05-02T11:50:11.796Z,51.7
2019-05-02T11:55:12.877Z,49.1
2019-05-02T12:00:12.372Z,50.5
2019-05-02T12:05:12.372Z,48.1
2019-05-02T12:10:12.489Z,47.7
2019-05-02T12:15:11.955Z,46.7
2019-05-02T12:20:11.838Z,47.4
2019-05-02T12:25:12.608Z,44.3
2019-05-02T12:30:11.761Z,47
2019-05-02T12:35:11.788Z,45.1
2019-05-02T12:40:12.258Z,43.9
2019-05-02T12:45:12.283Z,44.6
2019-05-02T12:50:12.152Z,44.7
2019-05-02T12:55:12.737Z,44.9
2019-05-02T13:00:18.513Z,44.7
2019-05-02T13:05:26.661Z,43.9
2019-05-02T13:10:29.111Z,41.6
2019-05-02T13:15:29.098Z,42.5
2019-05-02T13:20:29.335Z,42.5
2019-05-02T13:25:32.679Z,40.4
2019-05-02T13:30:32.219Z,41.4
2019-05-02T13:35:31.694Z,40.5
2019-05-02T13:40:29.366Z,41.1
2019-05-02T13:45:29.648Z,41.5
2019-05-02T13:50:31.654Z,38.3
2019-05-02T13:55:31.734Z,41
2019-05-02T14:00:31.750Z,40.9
2019-05-02T14:05:31.737Z,39.3
2019-05-02T14:10:32.023Z,38.8
2019-05-02T14:15:30.122Z,40.6
2019-05-02T14:20:30.125Z,36.9
2019-05-02T14:25:32.095Z,39.2
2019-05-02T14:30:39.186Z,37.8
2019-05-02T14:35:36.207Z,39.8
2019-05-02T14:40:34.088Z,38.9
2019-05-02T14:45:34.135Z,39.5
2019-05-02T14:50:36.427Z,38.8
2019-05-02T14:55:35.267Z,37.7
2019-05-02T15:00:39.319Z,38.5
2019-05-02T15:05:35.294Z,39.1
2019-05-02T15:10:40.010Z,40.1
2019-05-02T15:15:40.556Z,41.2
2019-05-02T15:20:39.270Z,40.8
2019-05-02T15:25:36.432Z,41.3
2019-05-02T15:30:44.646Z,42.4
2019-05-02T15:35:37.348Z,42.8
2019-05-02T15:40:45.804Z,42.5
2019-05-02T15:46:03.302Z,42.5
2019-05-02T15:50:59.982Z,42.9
2019-05-02T15:56:02.074Z,43.2
2019-05-02T16:01:06.128Z,46.5
2019-05-02T16:06:11.745Z,44.6
2019-05-02T16:11:13.608Z,45.7
2019-05-02T16:16:17.561Z,48.5
2019-05-02T16:21:17.923Z,55.5
2019-05-02T16:26:19.712Z,61.7
2019-05-02T16:31:21.986Z,65
2019-05-02T16:36:33.652Z,67.4
2019-05-02T16:41:41.195Z,69.5
2019-05-02T16:46:39.590Z,70.4
2019-05-02T16:51:39.601Z,71.9
2019-05-02T16:56:42.192Z,72.6
2019-05-02T17:01:44.604Z,74
2019-05-02T17:07:27.269Z,75.1
2019-05-02T17:12:27.196Z,75.2
2019-05-02T17:17:31.488Z,75.9
2019-05-02T17:22:27.471Z,75.5
2019-05-02T17:27:33.533Z,75.2
2019-05-02T17:32:37.449Z,75.9
2019-05-02T17:37:33.705Z,76.7
2019-05-02T17:42:34.359Z,77
2019-05-02T17:47:36.028Z,76.8
2019-05-02T17:52:42.701Z,76.7
2019-05-02T17:57:48.173Z,76.9
2019-05-02T18:02:51.675Z,77.4
2019-05-02T18:08:17.104Z,77.4
2019-05-02T18:13:33.720Z,77.6
2019-05-02T18:18:37.408Z,78.5
2019-05-02T18:23:42.743Z,78.8
2019-05-02T18:28:57.093Z,79.2
2019-05-02T18:34:29.148Z,80.2
2019-05-02T18:39:56.380Z,80.2
2019-05-02T18:44:58.695Z,80.5
2019-05-02T18:50:05.886Z,80.8
2019-05-02T18:55:22.918Z,81.2
2019-05-02T19:00:13.863Z,81.2
2019-05-02T19:05:25.082Z,81.3
2019-05-02T19:10:30.070Z,81.6
2019-05-02T19:15:45.048Z,81.7
2019-05-02T19:21:12.303Z,81.8
2019-05-02T19:26:41.495Z,81.8
2019-05-02T19:31:47.749Z,81.7
2019-05-02T19:36:47.587Z,82.2
2019-05-02T19:42:22.411Z,82
2019-05-02T19:48:19.308Z,81.9
2019-05-02T19:53:32.051Z,82.1
2019-05-02T19:58:49.250Z,82
2019-05-02T20:03:56.667Z,82.2
2019-05-02T20:09:04.647Z,82.6
2019-05-02T20:14:06.857Z,83
2019-05-02T20:19:01.908Z,83.2
2019-05-02T20:24:03.939Z,83.4
2019-05-02T20:29:01.971Z,83.7
2019-05-02T20:34:02.509Z,84
2019-05-02T20:39:02.370Z,84.3
2019-05-02T20:51:26.324Z,84.8
2019-05-02T21:03:54.275Z,85.9
2019-05-02T21:08:54.236Z,85.9
2019-05-02T21:13:55.260Z,86
2019-05-02T21:18:55.165Z,86.5
2019-05-02T21:23:55.214Z,86.6
2019-05-02T21:28:55.177Z,86.8
2019-05-02T21:33:55.245Z,86.9
2019-05-02T21:38:55.126Z,86.8
2019-05-02T21:43:55.251Z,86.3
2019-05-02T21:48:55.166Z,86.2
2019-05-02T21:53:58.114Z,86.3
2019-05-02T21:58:57.496Z,86.5
2019-05-02T22:03:57.536Z,85.9
2019-05-02T22:08:57.531Z,84.3
2019-05-02T22:13:57.586Z,84.3
2019-05-02T22:18:57.491Z,84.4
2019-05-02T22:24:08.097Z,84.7
2019-05-02T22:28:57.544Z,85.2
2019-05-02T22:33:57.650Z,85.3
2019-05-02T22:38:57.587Z,84.4
2019-05-02T22:43:57.538Z,83.8
2019-05-02T22:48:57.534Z,83.4
2019-05-02T22:53:57.540Z,82.9
2019-05-02T22:58:57.645Z,82.3
2019-05-02T23:03:57.522Z,82.2
2019-05-02T23:08:57.953Z,82
2019-05-02T23:13:57.525Z,82
2019-05-02T23:18:57.556Z,81.9
2019-05-02T23:23:57.824Z,82.2
2019-05-02T23:28:57.819Z,82.3
2019-05-02T23:33:57.853Z,82.5
2019-05-02T23:38:57.829Z,82.6
2019-05-02T23:43:57.818Z,82.9
2019-05-02T23:48:57.806Z,83.1
2019-05-02T23:53:58.044Z,83.2
2019-05-02T23:58:59.445Z,83.7
